createdAt,value
2019-04-04T00:03:30.249Z,6.46
2019-04-04T00:08:32.331Z,6.34
2019-04-04T00:13:34.438Z,6.44
2019-04-04T00:18:36.482Z,6.28
2019-04-04T00:23:38.690Z,6.39
2019-04-04T00:28:40.753Z,6.48
2019-04-04T00:33:42.833Z,6.50
2019-04-04T00:38:44.982Z,6.29
2019-04-04T00:43:47.090Z,6.47
2019-04-04T00:48:49.437Z,6.25
2019-04-04T00:53:51.586Z,6.14
2019-04-04T00:58:53.689Z,6.12
2019-04-04T01:03:55.796Z,6.27
2019-04-04T01:08:57.851Z,6.23
2019-04-04T01:13:59.927Z,6.12
2019-04-04T01:19:01.984Z,6.05
2019-04-04T01:24:04.170Z,6.13
2019-04-04T01:29:06.320Z,6.20
2019-04-04T01:34:08.351Z,6.20
2019-04-04T01:39:10.431Z,6.18
2019-04-04T01:44:12.499Z,6.02
2019-04-04T01:49:14.612Z,6.07
2019-04-04T01:54:16.738Z,6.06
2019-04-04T01:59:18.811Z,6.09
2019-04-04T02:04:20.885Z,6.08
2019-04-04T02:09:22.879Z,6.03
2019-04-04T02:14:24.930Z,6.15
2019-04-04T02:19:27.035Z,6.08
2019-04-04T02:24:29.758Z,5.99
2019-04-04T02:29:32.948Z,6.28
2019-04-04T02:34:37.705Z,6.16
2019-04-04T02:39:39.359Z,6.12
2019-04-04T02:44:41.462Z,6.25
2019-04-04T02:49:43.577Z,5.97
2019-04-04T02:54:45.619Z,5.92
2019-04-04T02:59:47.773Z,6.17
2019-04-04T03:04:49.848Z,6.06
2019-04-04T03:09:52.006Z,6.02
2019-04-04T03:14:54.056Z,6.07
2019-04-04T03:19:56.132Z,6.07
2019-04-04T03:24:58.153Z,6.01
2019-04-04T03:30:00.213Z,6.07
2019-04-04T03:35:02.336Z,6.13
2019-04-04T03:40:04.525Z,5.95
2019-04-04T03:45:06.699Z,5.99
2019-04-04T03:50:08.964Z,6.15
2019-04-04T03:55:10.985Z,6.30
2019-04-04T04:00:26.400Z,6.29
2019-04-04T04:05:33.969Z,6.16
2019-04-04T04:10:34.011Z,5.91
2019-04-04T04:15:36.153Z,6.17
2019-04-04T04:20:38.300Z,6.06
2019-04-04T04:25:43.333Z,6.04
2019-04-04T04:30:45.395Z,6.13
2019-04-04T04:35:47.499Z,6.30
2019-04-04T04:40:49.544Z,6.11
2019-04-04T04:45:51.657Z,6.02
2019-04-04T04:50:53.750Z,6.12
2019-04-04T04:55:59.490Z,6.12
2019-04-04T05:00:59.807Z,6.22
2019-04-04T05:06:02.627Z,6.11
2019-04-04T05:11:05.438Z,6.17
2019-04-04T05:16:08.968Z,6.33
2019-04-04T05:21:24.145Z,6.10
2019-04-04T05:26:15.170Z,6.32
2019-04-04T05:31:18.258Z,6.33
2019-04-04T05:36:20.901Z,6.03
2019-04-04T05:41:22.989Z,6.20
2019-04-04T05:46:25.042Z,6.28
2019-04-04T05:51:27.213Z,6.28
2019-04-04T05:56:29.195Z,6.31
2019-04-04T06:01:34.931Z,6.36
2019-04-04T06:06:35.462Z,6.27
2019-04-04T06:11:37.669Z,6.36
2019-04-04T06:16:39.723Z,6.37
2019-04-04T06:21:41.846Z,6.45
2019-04-04T06:26:43.924Z,6.18
2019-04-04T06:31:45.938Z,6.43
2019-04-04T06:36:49.097Z,6.38
2019-04-04T06:41:51.882Z,6.24
2019-04-04T06:46:54.213Z,6.28
2019-04-04T06:51:56.420Z,6.24
2019-04-04T06:56:59.301Z,6.09
2019-04-04T07:02:01.892Z,6.09
2019-04-04T07:07:03.991Z,6.18
2019-04-04T07:12:06.758Z,6.34
2019-04-04T07:17:09.572Z,6.14
2019-04-04T07:22:11.766Z,6.14
2019-04-04T07:27:14.207Z,6.42
2019-04-04T07:32:17.858Z,6.29
2019-04-04T07:37:22.031Z,6.02
2019-04-04T07:42:23.804Z,6.14
2019-04-04T07:47:25.837Z,6.02
2019-04-04T07:52:27.960Z,6.20
2019-04-04T07:57:30.438Z,6.23
2019-04-04T08:02:32.916Z,6.28
2019-04-04T08:07:34.966Z,6.09
2019-04-04T08:12:36.985Z,6.15
2019-04-04T08:17:39.682Z,6.32
2019-04-04T08:22:41.727Z,6.30
2019-04-04T08:27:43.837Z,6.25
2019-04-04T08:32:45.983Z,6.48
2019-04-04T08:37:48.117Z,6.36
2019-04-04T08:42:50.675Z,6.64
2019-04-04T08:47:52.718Z,6.45
2019-04-04T08:52:54.831Z,6.40
2019-04-04T08:57:56.860Z,6.39
2019-04-04T09:02:59.010Z,6.58
2019-04-04T09:08:01.072Z,6.55
2019-04-04T09:13:03.160Z,6.46
2019-04-04T09:18:05.579Z,6.49
2019-04-04T09:23:07.589Z,6.69
2019-04-04T09:28:09.681Z,6.84
2019-04-04T09:33:11.763Z,6.84
2019-04-04T09:38:13.801Z,6.67
2019-04-04T09:43:15.876Z,6.81
2019-04-04T09:48:17.957Z,6.75
2019-04-04T09:53:20.151Z,6.74
2019-04-04T09:58:22.535Z,7.01
2019-04-04T10:03:24.614Z,6.94
2019-04-04T10:08:26.609Z,6.89
2019-04-04T10:13:28.670Z,7.19
2019-04-04T10:18:30.744Z,6.88
2019-04-04T10:23:32.799Z,6.94
2019-04-04T10:28:34.944Z,6.90
2019-04-04T10:33:37.028Z,6.79
2019-04-04T10:38:39.152Z,6.81
2019-04-04T10:43:41.157Z,6.83
2019-04-04T10:48:43.229Z,6.68
2019-04-04T10:53:45.327Z,6.79
2019-04-04T10:58:47.422Z,6.65
2019-04-04T11:03:49.497Z,6.67
2019-04-04T11:08:51.648Z,6.53
2019-04-04T11:13:53.684Z,6.64
2019-04-04T11:18:55.758Z,6.88
2019-04-04T11:23:57.899Z,6.67
2019-04-04T11:29:00.005Z,6.84
2019-04-04T11:34:02.113Z,6.79
2019-04-04T11:39:05.942Z,6.68
2019-04-04T11:44:08.040Z,6.80
2019-04-04T11:49:10.133Z,6.74
2019-04-04T11:54:12.287Z,6.77
2019-04-04T11:59:14.361Z,6.63
2019-04-04T12:04:16.383Z,6.80
2019-04-04T12:09:18.777Z,6.67
2019-04-04T12:14:20.892Z,6.64
2019-04-04T12:19:22.942Z,6.74
2019-04-04T12:24:25.047Z,6.81
2019-04-04T12:29:27.157Z,6.77
2019-04-04T12:34:29.214Z,6.79
2019-04-04T12:39:31.247Z,6.78
2019-04-04T12:44:33.325Z,6.75
2019-04-04T12:49:35.411Z,6.67
2019-04-04T12:54:37.493Z,6.76
2019-04-04T12:59:39.617Z,6.98
2019-04-04T13:04:41.606Z,6.85
2019-04-04T13:09:43.818Z,6.99
2019-04-04T13:14:45.887Z,6.73
2019-04-04T13:19:48.302Z,6.66
2019-04-04T13:24:50.374Z,6.69
2019-04-04T13:29:52.417Z,6.23
2019-04-04T13:34:59.409Z,6.12
2019-04-04T13:39:58.387Z,6.27
2019-04-04T13:45:00.441Z,6.07
2019-04-04T13:50:03.073Z,6.45
2019-04-04T13:55:05.450Z,6.15
2019-04-04T14:00:10.432Z,6.15
2019-04-04T14:05:14.427Z,6.24
2019-04-04T14:10:18.010Z,6.27
2019-04-04T14:15:20.406Z,6.39
2019-04-04T14:20:22.416Z,6.47
2019-04-04T14:25:24.447Z,6.44
2019-04-04T14:30:26.457Z,6.25
2019-04-04T14:35:28.489Z,6.56
2019-04-04T14:40:30.557Z,6.50
2019-04-04T14:45:32.626Z,6.56
2019-04-04T14:50:34.714Z,6.75
2019-04-04T14:55:36.829Z,6.73
2019-04-04T15:00:38.921Z,6.86
2019-04-04T15:05:41.009Z,7.01
2019-04-04T15:10:43.012Z,6.96
2019-04-04T15:16:10.110Z,7.10
2019-04-04T15:21:12.961Z,6.93
2019-04-04T15:26:15.055Z,6.97
2019-04-04T15:31:17.104Z,6.93
2019-04-04T15:36:19.526Z,7.05
2019-04-04T15:41:21.551Z,7.16
2019-04-04T15:46:23.680Z,7.08
2019-04-04T15:51:25.753Z,7.10
2019-04-04T15:56:27.848Z,7.11
2019-04-04T16:01:29.883Z,7.00
2019-04-04T16:06:31.904Z,6.99
2019-04-04T16:11:33.953Z,7.02
2019-04-04T16:16:36.004Z,7.05
2019-04-04T16:21:38.083Z,6.99
2019-04-04T16:26:40.147Z,6.98
2019-04-04T16:31:42.211Z,6.92
2019-04-04T16:36:44.243Z,6.92
2019-04-04T16:41:46.246Z,6.82
2019-04-04T16:46:48.858Z,6.78
2019-04-04T16:51:50.914Z,6.85
2019-04-04T16:56:52.976Z,6.81
2019-04-04T17:01:55.039Z,6.80
2019-04-04T17:06:57.135Z,6.82
2019-04-04T17:11:59.183Z,6.79
2019-04-04T17:17:01.259Z,6.69
2019-04-04T17:22:03.274Z,6.74
2019-04-04T17:27:05.279Z,6.74
2019-04-04T17:32:08.682Z,6.71
2019-04-04T17:37:10.826Z,6.66
2019-04-04T17:42:12.919Z,6.63
2019-04-04T17:47:14.964Z,6.63
2019-04-04T17:52:17.268Z,6.64
2019-04-04T17:57:19.403Z,6.68
2019-04-04T18:02:21.407Z,6.63
2019-04-04T18:07:23.660Z,6.61
2019-04-04T18:12:25.744Z,6.64
2019-04-04T18:17:27.766Z,6.64
2019-04-04T18:22:29.817Z,6.70
2019-04-04T18:27:31.921Z,6.73
2019-04-04T18:32:33.978Z,6.75
2019-04-04T18:37:36.134Z,6.69
2019-04-04T18:42:38.254Z,6.68
2019-04-04T18:47:40.423Z,6.60
2019-04-04T18:52:42.566Z,6.64
2019-04-04T18:57:44.642Z,6.61
2019-04-04T19:02:46.768Z,6.61
2019-04-04T19:07:48.855Z,6.58
2019-04-04T19:12:50.879Z,6.58
2019-04-04T19:17:52.974Z,6.55
2019-04-04T19:22:55.065Z,6.44
2019-04-04T19:27:57.166Z,6.34
2019-04-04T19:32:59.417Z,6.36
2019-04-04T19:38:01.513Z,6.36
2019-04-04T19:43:03.599Z,6.39
2019-04-04T19:48:05.680Z,6.36
2019-04-04T19:53:07.763Z,6.39
2019-04-04T19:58:09.896Z,6.38
2019-04-04T20:03:12.207Z,6.39
2019-04-04T20:08:14.249Z,6.37
2019-04-04T20:13:16.360Z,6.30
2019-04-04T20:18:18.453Z,6.31
2019-04-04T20:23:20.538Z,6.32
2019-04-04T20:28:22.616Z,6.34
2019-04-04T20:33:24.965Z,6.29
2019-04-04T20:38:27.070Z,6.27
2019-04-04T20:43:29.276Z,6.33
2019-04-04T20:48:31.324Z,6.26
2019-04-04T20:53:33.368Z,6.32
2019-04-04T20:58:35.483Z,6.29
2019-04-04T21:03:37.544Z,6.12
2019-04-04T21:08:39.617Z,6.17
2019-04-04T21:13:41.940Z,6.08
2019-04-04T21:18:44.049Z,5.98
2019-04-04T21:23:46.150Z,6.00
2019-04-04T21:28:48.215Z,6.09
2019-04-04T21:33:50.266Z,6.05
2019-04-04T21:38:52.331Z,6.11
2019-04-04T21:43:54.387Z,6.05
2019-04-04T21:48:56.462Z,6.03
2019-04-04T21:53:58.498Z,6.17
2019-04-04T21:59:00.724Z,6.02
2019-04-04T22:04:02.808Z,5.90
2019-04-04T22:09:08.154Z,5.96
2019-04-04T22:14:21.036Z,5.97
2019-04-04T22:19:14.161Z,5.92
2019-04-04T22:24:16.246Z,5.90
2019-04-04T22:29:18.240Z,5.95
2019-04-04T22:34:20.309Z,5.90
2019-04-04T22:39:22.358Z,5.96
2019-04-04T22:44:34.214Z,5.80
2019-04-04T22:49:28.508Z,5.85
2019-04-04T22:54:30.536Z,5.74
2019-04-04T22:59:32.605Z,5.73
2019-04-04T23:04:34.668Z,5.78
2019-04-04T23:09:36.758Z,5.76
2019-04-04T23:14:47.866Z,5.77
2019-04-04T23:19:42.787Z,5.89
2019-04-04T23:24:44.872Z,5.90
2019-04-04T23:29:46.941Z,5.88
2019-04-04T23:34:49.028Z,5.87
2019-04-04T23:39:51.133Z,5.87
2019-04-04T23:45:00.772Z,5.92
2019-04-04T23:49:57.276Z,5.91
2019-04-04T23:54:59.414Z,5.85
